Time;durP1;ratioP1;P1;durP2;ratioP2;P2;SDS_P1;SDS_P2;PMS_P1;PMS_P2;Temp;Humidity;BMP_temperature;BMP_pressure;BME280_temperature;BME280_humidity;BME280_pressure;Samples;Min_cycle;Max_cycle;Signal;HPM_P1;HPM_P2
2023/12/26 00:00:28;;;;;;;35.37;16.70;;;8.60;79.70;;;8.64;53.07;95097.94;5007834;28;20476;-59
2023/12/26 00:02:55;;;;;;;29.90;16.90;;;8.60;79.60;;;8.56;53.43;95091.50;5008719;28;20458;-61
2023/12/26 00:05:25;;;;;;;34.17;18.37;;;8.50;79.60;;;8.47;53.11;95094.03;5008798;28;20556;-59
2023/12/26 00:07:54;;;;;;;32.33;17.10;;;8.50;79.20;;;8.41;54.07;95103.16;5008833;28;21095;-56
2023/12/26 00:10:21;;;;;;;35.10;14.13;;;8.40;80.30;;;8.34;54.20;95105.44;5008350;28;20473;-58
2023/12/26 00:12:49;;;;;;;40.57;16.00;;;8.30;80.60;;;8.33;54.67;95100.31;5008375;28;20450;-56
2023/12/26 00:15:17;;;;;;;33.77;15.23;;;8.30;81.30;;;8.33;54.32;95111.63;5007443;28;20573;-57
2023/12/26 00:17:44;;;;;;;30.90;16.67;;;8.30;81.40;;;8.33;53.91;95108.19;5008176;28;20498;-59
2023/12/26 00:20:13;;;;;;;40.23;16.57;;;8.30;81.90;;;8.32;54.66;95114.38;5008663;28;20481;-59
2023/12/26 00:22:41;;;;;;;34.87;15.50;;;8.30;82.60;;;8.30;54.58;95114.50;5009187;28;20915;-59
2023/12/26 00:25:10;;;;;;;31.63;15.63;;;8.30;82.30;;;8.30;54.78;95111.88;5010635;28;20527;-60
2023/12/26 00:27:39;;;;;;;34.77;16.57;;;8.30;82.20;;;8.30;54.71;95124.16;5012675;28;21020;-60
2023/12/26 00:30:08;;;;;;;40.53;17.10;;;8.30;82.50;;;8.27;54.20;95119.97;5011638;28;20477;-60
2023/12/26 00:32:36;;;;;;;37.07;19.47;;;8.20;81.90;;;8.26;54.45;95126.19;5013532;28;20489;-59
2023/12/26 00:35:04;;;;;;;35.67;19.27;;;8.20;82.80;;;8.22;54.36;95125.56;5012769;28;20474;-60
2023/12/26 00:37:32;;;;;;;45.07;17.73;;;8.20;83.80;;;8.21;54.77;95125.69;5011573;28;20536;-58
2023/12/26 00:40:00;;;;;;;39.00;18.63;;;8.20;84.50;;;8.20;55.82;95140.59;5012063;28;20997;-55
2023/12/26 00:42:29;;;;;;;37.00;19.67;;;8.20;85.00;;;8.18;55.04;95133.78;5012493;28;20453;-57
2023/12/26 00:44:57;;;;;;;35.17;18.40;;;8.10;85.20;;;8.17;55.23;95130.34;5007301;28;20880;-56
2023/12/26 00:47:24;;;;;;;35.60;18.63;;;8.10;85.70;;;8.14;55.70;95130.56;5011743;28;21057;-55
2023/12/26 00:49:55;;;;;;;42.47;18.30;;;8.10;85.90;;;8.14;55.25;95135.00;5008049;28;20565;-55
2023/12/26 00:52:22;;;;;;;33.43;17.30;;;8.10;86.20;;;8.11;55.79;95136.06;5009022;28;20608;-55
2023/12/26 00:54:50;;;;;;;35.70;16.37;;;8.10;86.80;;;8.08;56.37;95146.78;5011110;28;20469;-56
2023/12/26 00:57:17;;;;;;;38.73;15.33;;;8.10;87.30;;;8.04;56.00;95140.94;5011514;28;20469;-55
2023/12/26 00:59:46;;;;;;;38.60;16.67;;;8.00;87.20;;;7.99;56.50;95135.19;5007092;28;20482;-56
2023/12/26 01:02:13;;;;;;;33.73;16.07;;;8.00;87.70;;;7.92;55.38;95131.41;5011686;28;20953;-57
2023/12/26 01:04:41;;;;;;;30.37;14.70;;;7.90;87.10;;;7.94;56.03;95141.75;5010951;28;20465;-61
2023/12/26 01:07:08;;;;;;;28.60;14.27;;;7.90;88.10;;;7.94;56.25;95136.53;5007590;28;20496;-59
2023/12/26 01:09:35;;;;;;;35.30;14.87;;;7.90;88.80;;;7.93;56.67;95142.69;5007471;28;20469;-56
2023/12/26 01:12:03;;;;;;;33.33;14.97;;;7.90;89.00;;;7.92;55.93;95141.88;5007672;28;20501;-57
2023/12/26 01:14:30;;;;;;;31.80;14.30;;;7.90;88.40;;;7.90;55.75;95142.00;5006581;28;20492;-56
2023/12/26 01:16:59;;;;;;;29.03;13.70;;;7.90;88.80;;;7.88;56.51;95141.28;5010872;28;20468;-59
2023/12/26 01:19:27;;;;;;;29.53;14.20;;;7.80;89.50;;;7.89;56.68;95140.31;5007807;28;20555;-59
2023/12/26 01:21:54;;;;;;;28.87;14.77;;;7.90;90.00;;;7.89;56.02;95134.25;5007103;28;20458;-59
2023/12/26 01:24:21;;;;;;;29.30;13.93;;;7.80;89.70;;;7.87;56.46;95137.00;5006777;28;20532;-59
2023/12/26 01:26:49;;;;;;;28.13;13.83;;;7.90;89.50;;;7.83;56.05;95129.47;5010697;28;20493;-61
2023/12/26 01:29:16;;;;;;;32.43;14.30;;;7.80;90.10;;;7.80;57.56;95137.56;5006610;28;20925;-60
2023/12/26 01:31:43;;;;;;;33.33;14.30;;;7.80;90.70;;;7.77;56.43;95141.25;5011673;28;20461;-56
2023/12/26 01:34:12;;;;;;;25.80;13.23;;;7.80;90.10;;;7.72;56.96;95140.78;5010486;28;20453;-60
2023/12/26 01:36:40;;;;;;;29.63;14.30;;;7.70;90.20;;;7.69;56.96;95136.59;5010101;28;20969;-59
2023/12/26 01:39:07;;;;;;;23.50;13.57;;;7.70;90.20;;;7.68;57.16;95139.31;5011550;28;20450;-56
2023/12/26 01:41:35;;;;;;;28.93;15.10;;;7.70;90.60;;;7.64;56.19;95141.34;5011859;28;20453;-60
2023/12/26 01:44:02;;;;;;;24.70;13.60;;;7.60;90.30;;;7.61;57.07;95144.19;5007532;28;21003;-57
2023/12/26 01:46:29;;;;;;;28.70;13.07;;;7.60;90.40;;;7.60;56.34;95146.94;5010521;28;20583;-59
2023/12/26 01:48:57;;;;;;;30.03;14.20;;;7.60;90.50;;;7.58;57.04;95146.22;5010405;28;20460;-61
2023/12/26 01:51:26;;;;;;;27.40;12.17;;;7.50;90.60;;;7.55;57.41;95144.66;5009759;28;20484;-60
2023/12/26 01:53:53;;;;;;;27.07;14.50;;;7.50;90.90;;;7.50;56.35;95138.94;5011415;28;20460;-60
2023/12/26 01:56:21;;;;;;;32.60;13.03;;;7.50;90.50;;;7.46;57.28;95140.09;5007082;28;20492;-59
2023/12/26 01:58:50;;;;;;;25.80;13.40;;;7.50;91.20;;;7.42;56.88;95129.03;5010173;28;20454;-58
2023/12/26 02:01:17;;;;;;;18.97;13.60;;;7.40;90.80;;;7.39;57.09;95128.41;5007505;28;20473;-58
2023/12/26 02:03:44;;;;;;;24.73;12.47;;;7.40;91.40;;;7.40;57.11;95127.47;5011463;28;20445;-57
2023/12/26 02:06:12;;;;;;;25.13;12.07;;;7.30;91.50;;;7.39;57.71;95142.34;5011213;28;21016;-61
2023/12/26 02:08:41;;;;;;;19.90;11.17;;;7.40;91.50;;;7.37;57.41;95131.13;5011128;28;21040;-58
2023/12/26 02:11:08;;;;;;;20.30;10.50;;;7.40;91.80;;;7.38;57.84;95139.84;5011303;28;20472;-61
2023/12/26 02:13:36;;;;;;;21.23;9.90;;;7.30;91.90;;;7.40;57.48;95136.16;5011185;28;20446;-60
2023/12/26 02:16:07;;;;;;;16.70;10.17;;;7.40;91.70;;;7.42;57.09;95136.03;5011267;28;20481;-60
2023/12/26 02:18:35;;;;;;;14.00;9.07;;;7.40;91.20;;;7.39;56.71;95137.13;5007381;28;20453;-56
2023/12/26 02:21:04;;;;;;;15.97;8.50;;;7.40;91.40;;;7.40;56.64;95136.16;5010744;28;21059;-59
2023/12/26 02:23:31;;;;;;;15.93;8.40;;;7.40;91.50;;;7.44;57.17;95132.38;5010471;28;20458;-57
2023/12/26 02:26:00;;;;;;;14.97;8.43;;;7.40;91.50;;;7.47;56.72;95137.38;5010728;28;20524;-55
2023/12/26 02:28:28;;;;;;;17.27;8.50;;;7.40;91.20;;;7.46;56.50;95140.94;5010630;28;20492;-59
2023/12/26 02:30:55;;;;;;;17.87;8.70;;;7.50;91.10;;;7.45;55.99;95143.66;5010576;28;20477;-59
2023/12/26 02:33:23;;;;;;;14.73;8.17;;;7.40;91.00;;;7.45;56.17;95147.13;5010351;28;20976;-61
2023/12/26 02:35:50;;;;;;;17.17;8.90;;;7.40;90.80;;;7.44;56.57;95145.44;5010490;28;20462;-57
2023/12/26 02:38:17;;;;;;;15.50;9.17;;;7.40;90.80;;;7.44;55.95;95152.47;5011124;28;20954;-60
2023/12/26 02:40:45;;;;;;;26.60;11.20;;;7.40;90.80;;;7.43;56.58;95150.78;5007908;28;20471;-62
2023/12/26 02:43:14;;;;;;;18.60;11.33;;;7.40;91.00;;;7.41;56.07;95148.28;5010107;28;20446;-61
2023/12/26 02:45:41;;;;;;;25.43;12.57;;;7.40;90.90;;;7.41;56.75;95147.47;5004742;28;20583;-57
2023/12/26 02:48:08;;;;;;;32.87;12.87;;;7.40;91.50;;;7.38;56.90;95148.53;5005374;28;20501;-58
2023/12/26 02:50:36;;;;;;;25.60;12.10;;;7.40;91.60;;;7.36;56.45;95147.81;5010677;28;20489;-58
2023/12/26 02:53:03;;;;;;;28.73;11.37;;;7.40;91.30;;;7.33;56.69;95150.66;5007199;28;20842;-57
2023/12/26 02:55:31;;;;;;;19.43;10.63;;;7.40;91.20;;;7.33;56.85;95153.28;5011345;28;20476;-60
2023/12/26 02:57:58;;;;;;;19.03;10.80;;;7.30;91.50;;;7.33;57.20;95159.31;5007111;28;20981;-59
2023/12/26 03:00:27;;;;;;;23.97;10.70;;;7.30;91.90;;;7.34;56.84;95158.38;5006902;28;20488;-59
2023/12/26 03:02:54;;;;;;;37.70;14.63;;;7.30;91.30;;;7.35;56.76;95159.22;5007279;28;20468;-60
2023/12/26 03:05:22;;;;;;;29.03;13.07;;;7.40;91.70;;;7.36;57.18;95159.09;5007085;28;20472;-60
2023/12/26 03:07:49;;;;;;;19.73;10.90;;;7.30;91.90;;;7.39;56.96;95157.19;5007216;28;20938;-57
2023/12/26 03:10:17;;;;;;;25.13;11.90;;;7.40;91.90;;;7.39;56.34;95160.66;5006843;28;20477;-57
2023/12/26 03:12:44;;;;;;;30.77;12.60;;;7.40;91.30;;;7.37;57.17;95162.53;5006827;28;20469;-57
2023/12/26 03:15:12;;;;;;;33.47;17.60;;;7.40;91.70;;;7.33;56.61;95161.13;5006801;28;21008;-57
2023/12/26 03:17:41;;;;;;;44.57;17.20;;;7.30;91.50;;;7.27;56.97;95158.94;5006932;28;20454;-60
2023/12/26 03:20:09;;;;;;;26.93;14.07;;;7.30;92.00;;;7.23;57.67;95165.34;5006471;28;20470;-57
2023/12/26 03:22:36;;;;;;;30.70;17.20;;;7.20;92.00;;;7.20;56.80;95157.72;5006637;28;20448;-57
2023/12/26 03:25:04;;;;;;;36.10;17.73;;;7.20;91.70;;;7.15;57.00;95161.50;5006719;28;20457;-57
2023/12/26 03:27:32;;;;;;;39.43;18.10;;;7.20;91.60;;;7.11;57.39;95162.69;5006670;28;20501;-60
2023/12/26 03:29:59;;;;;;;48.30;24.60;;;7.20;92.00;;;7.09;58.08;95161.94;5006837;28;20465;-60
2023/12/26 03:32:26;;;;;;;57.97;24.10;;;7.10;92.20;;;7.03;57.49;95172.84;5003680;28;20446;-60
2023/12/26 03:34:55;;;;;;;55.20;25.80;;;7.10;92.60;;;6.97;57.59;95170.66;5005874;28;20515;-60
2023/12/26 03:37:23;;;;;;;40.10;20.80;;;7.00;92.60;;;6.91;58.43;95168.50;5006016;28;20537;-57
2023/12/26 03:39:50;;;;;;;46.07;22.10;;;7.00;93.20;;;6.88;58.06;95168.72;5005709;28;20488;-58
2023/12/26 03:42:17;;;;;;;48.40;23.53;;;6.90;93.10;;;6.85;58.49;95171.56;5005368;28;20475;-57
2023/12/26 03:44:46;;;;;;;41.37;22.20;;;6.80;93.20;;;6.85;58.75;95179.38;5001727;28;20868;-59
2023/12/26 03:47:14;;;;;;;37.03;20.80;;;6.90;93.60;;;6.81;58.69;95177.00;5009710;28;20540;-60
2023/12/26 03:49:41;;;;;;;41.20;20.43;;;6.80;93.60;;;6.79;58.46;95175.47;5006066;28;20482;-57
2023/12/26 03:52:10;;;;;;;31.20;12.90;;;6.80;93.60;;;6.74;58.16;95180.16;5009361;28;20456;-58
2023/12/26 03:54:38;;;;;;;28.37;14.60;;;6.70;93.30;;;6.67;58.44;95186.78;5005726;28;20477;-59
2023/12/26 03:57:07;;;;;;;23.37;13.13;;;6.70;93.40;;;6.61;58.29;95185.41;5005898;28;20512;-57
2023/12/26 03:59:34;;;;;;;28.00;13.13;;;6.70;93.30;;;6.59;58.22;95182.09;5005911;28;20473;-59
2023/12/26 04:02:01;;;;;;;27.17;12.50;;;6.60;93.40;;;6.57;58.90;95184.00;5006234;28;20450;-59
2023/12/26 04:04:29;;;;;;;31.57;14.70;;;6.60;94.00;;;6.56;59.23;95179.69;5005677;28;21020;-60
2023/12/26 04:06:56;;;;;;;29.30;13.50;;;6.60;94.00;;;6.56;59.13;95182.31;5005446;28;20450;-59
2023/12/26 04:09:25;;;;;;;28.73;14.50;;;6.60;94.10;;;6.59;58.91;95182.09;5006039;28;20500;-60
2023/12/26 04:11:52;;;;;;;30.80;13.70;;;6.60;94.20;;;6.59;58.83;95185.53;5006572;28;20483;-56
2023/12/26 04:14:19;;;;;;;26.67;15.50;;;6.60;94.40;;;6.60;58.03;95188.97;5005844;28;20468;-57
2023/12/26 04:16:47;;;;;;;26.53;13.53;;;6.60;93.70;;;6.60;58.27;95183.75;5009861;28;20458;-57
2023/12/26 04:19:14;;;;;;;29.50;13.93;;;6.60;93.90;;;6.59;59.19;95192.53;5009976;28;20634;-60
2023/12/26 04:21:42;;;;;;;39.80;15.27;;;6.60;94.30;;;6.56;58.19;95190.97;5005961;28;20449;-62
2023/12/26 04:24:09;;;;;;;28.67;15.63;;;6.60;94.00;;;6.56;59.31;95193.59;5009600;28;21121;-57
2023/12/26 04:26:38;;;;;;;34.63;17.13;;;6.60;94.20;;;6.56;58.48;95197.97;5009755;28;20525;-57
2023/12/26 04:29:05;;;;;;;34.83;15.93;;;6.60;94.00;;;6.55;58.23;95196.31;5009108;28;20831;-58
2023/12/26 04:31:33;;;;;;;32.67;15.73;;;6.60;93.70;;;6.54;58.41;95210.34;5005109;28;21080;-56
2023/12/26 04:34:00;;;;;;;33.83;17.37;;;6.60;94.00;;;6.54;58.37;95202.50;5010115;28;20472;-60
2023/12/26 04:36:27;;;;;;;34.67;16.63;;;6.60;93.90;;;6.52;58.96;95213.06;5009787;28;20962;-57
2023/12/26 04:38:55;;;;;;;30.33;16.07;;;6.60;94.30;;;6.50;58.96;95201.03;5009651;28;20884;-60
2023/12/26 04:41:22;;;;;;;37.43;18.97;;;6.50;94.60;;;6.47;58.64;95209.91;5009704;28;20470;-61
2023/12/26 04:43:51;;;;;;;38.20;19.93;;;6.50;94.30;;;6.44;59.31;95204.88;5009500;28;20453;-55
2023/12/26 04:46:19;;;;;;;45.60;19.00;;;6.50;94.60;;;6.41;59.22;95208.56;5008292;28;20462;-56
2023/12/26 04:48:47;;;;;;;44.47;19.70;;;6.50;94.80;;;6.39;59.96;95205.22;5008436;28;20496;-57
2023/12/26 04:51:16;;;;;;;42.47;22.30;;;6.40;95.20;;;6.36;59.09;95207.22;5007924;28;20482;-60
2023/12/26 04:53:45;;;;;;;42.73;22.73;;;6.40;94.90;;;6.31;59.59;95207.53;5002082;28;20480;-59
2023/12/26 04:56:18;;;;;;;42.40;22.53;;;6.40;95.10;;;6.27;59.50;95213.88;5007648;28;20462;-59
2023/12/26 04:58:46;;;;;;;47.00;21.73;;;6.30;95.10;;;6.24;59.73;95209.72;5005603;28;20966;-55
2023/12/26 05:01:15;;;;;;;42.20;21.63;;;6.30;94.90;;;6.21;59.28;95209.09;5008155;28;20803;-59
2023/12/26 05:03:43;;;;;;;42.70;22.23;;;6.30;94.70;;;6.19;59.43;95205.75;5008218;28;20454;-61
2023/12/26 05:06:11;;;;;;;41.93;21.07;;;6.20;94.70;;;6.17;59.75;95212.88;5003423;28;20462;-60
2023/12/26 05:08:38;;;;;;;38.90;17.77;;;6.20;94.90;;;6.14;59.78;95215.69;5008904;28;20501;-58
2023/12/26 05:11:06;;;;;;;31.23;15.03;;;6.20;94.90;;;6.10;59.62;95213.28;5008842;28;20890;-60
2023/12/26 05:13:33;;;;;;;29.27;15.33;;;6.10;94.80;;;6.07;59.08;95218.72;5011569;28;20457;-60
2023/12/26 05:16:03;;;;;;;36.57;18.43;;;6.10;94.60;;;6.05;59.49;95210.13;5011711;28;20561;-59
2023/12/26 05:18:32;;;;;;;30.73;14.73;;;6.10;94.70;;;6.02;59.27;95201.66;5010242;28;20439;-57
2023/12/26 05:21:00;;;;;;;35.17;15.80;;;6.10;94.80;;;5.99;59.53;95199.28;5011950;28;20469;-59
2023/12/26 05:23:27;;;;;;;28.07;14.47;;;6.00;94.90;;;5.95;59.05;95214.28;5011260;28;20446;-60
2023/12/26 05:25:54;;;;;;;35.30;15.70;;;6.00;94.80;;;5.92;59.58;95204.88;5005928;28;20474;-55
2023/12/26 05:28:22;;;;;;;27.40;14.50;;;6.00;94.90;;;5.90;59.86;95205.91;5011698;28;21055;-58
2023/12/26 05:30:49;;;;;;;31.70;15.07;;;5.90;95.00;;;5.87;59.89;95200.88;5011777;28;20469;-56
2023/12/26 05:33:16;;;;;;;29.60;15.77;;;5.90;95.10;;;5.83;59.58;95199.44;5010458;28;20472;-56
2023/12/26 05:35:45;;;;;;;30.30;14.47;;;5.90;95.30;;;5.80;60.12;95200.47;5011602;28;21048;-55
2023/12/26 05:38:12;;;;;;;29.67;14.67;;;5.80;95.20;;;5.78;59.59;95202.34;5011408;28;20843;-55
2023/12/26 05:40:40;;;;;;;27.47;15.27;;;5.90;94.90;;;5.77;59.61;95210.28;5011640;28;20477;-56
2023/12/26 05:43:08;;;;;;;30.10;16.00;;;5.80;95.30;;;5.77;59.65;95212.91;5011855;28;20559;-59
2023/12/26 05:45:35;;;;;;;35.07;17.93;;;5.80;95.30;;;5.72;59.57;95206.19;5010756;28;20474;-59
2023/12/26 05:48:02;;;;;;;43.27;16.70;;;5.80;95.30;;;5.71;60.00;95206.31;5011171;28;20485;-57
2023/12/26 05:50:29;;;;;;;30.90;16.10;;;5.80;95.60;;;5.70;59.73;95208.09;5011750;28;20551;-59
2023/12/26 05:52:58;;;;;;;33.00;18.60;;;5.70;95.60;;;5.69;60.15;95206.41;5011537;28;20465;-59
2023/12/26 05:55:25;;;;;;;34.87;17.77;;;5.70;95.70;;;5.70;60.25;95209.84;5007406;28;20477;-57
2023/12/26 05:57:53;;;;;;;34.33;18.80;;;5.80;96.10;;;5.69;60.31;95200.34;5007224;28;20458;-57
2023/12/26 06:00:20;;;;;;;35.27;17.47;;;5.80;96.10;;;5.69;60.77;95211.63;5011356;28;21028;-59
2023/12/26 06:02:48;;;;;;;34.17;19.00;;;5.70;96.40;;;5.71;60.88;95214.13;5009571;28;20468;-59
2023/12/26 06:05:15;;;;;;;38.30;19.23;;;5.70;96.40;;;5.72;60.74;95210.59;5004670;28;20473;-59
2023/12/26 06:07:42;;;;;;;47.33;25.83;;;5.80;95.90;;;5.73;60.46;95213.09;5010623;28;20454;-60
2023/12/26 06:10:11;;;;;;;58.37;26.60;;;5.80;95.90;;;5.75;60.58;95213.81;5011037;28;20473;-59
2023/12/26 06:12:39;;;;;;;45.43;22.53;;;5.80;96.30;;;5.77;60.99;95223.34;5010687;28;20442;-57
2023/12/26 06:15:07;;;;;;;45.10;23.97;;;5.80;96.60;;;5.78;60.57;95227.59;5010590;28;20578;-59
2023/12/26 06:17:36;;;;;;;37.70;21.07;;;5.80;96.20;;;5.84;60.50;95222.84;5010903;28;20453;-59
2023/12/26 06:20:04;;;;;;;34.00;18.40;;;5.90;96.50;;;6.07;60.61;95230.91;5010532;28;20465;-59
2023/12/26 06:22:32;;;;;;;32.40;17.80;;;6.10;96.70;;;6.46;60.27;95234.38;5009816;28;20446;-57
2023/12/26 06:24:59;;;;;;;34.70;19.30;;;6.50;96.20;;;6.92;58.83;95230.31;5010116;28;20461;-58
2023/12/26 06:27:28;;;;;;;39.60;20.63;;;7.00;95.30;;;7.41;57.41;95231.22;5010234;28;20843;-59
2023/12/26 06:29:55;;;;;;;31.13;18.33;;;7.50;94.40;;;7.85;57.05;95232.31;5010895;28;20505;-57
2023/12/26 06:32:23;;;;;;;31.73;18.00;;;7.90;93.60;;;8.34;56.02;95222.56;5009403;28;20874;-56
2023/12/26 06:34:50;;;;;;;32.97;18.13;;;8.50;92.90;;;8.86;55.29;95236.06;5009511;28;20480;-56
2023/12/26 06:37:17;;;;;;;32.30;18.27;;;9.00;91.90;;;9.35;54.14;95237.41;5010498;28;20508;-57
2023/12/26 06:39:45;;;;;;;40.10;19.70;;;9.60;91.30;;;9.81;53.02;95232.84;5010192;28;20466;-58
2023/12/26 06:42:12;;;;;;;43.33;20.17;;;10.10;88.10;;;10.28;52.17;95235.13;5010728;28;20449;-59
2023/12/26 06:44:41;;;;;;;39.93;19.93;;;10.60;86.30;;;10.72;51.65;95234.00;5008705;28;20942;-59
2023/12/26 06:47:08;;;;;;;38.33;18.80;;;11.10;84.30;;;11.16;50.54;95228.47;5010636;28;20450;-58
2023/12/26 06:49:36;;;;;;;38.73;17.43;;;11.50;82.50;;;11.54;49.08;95223.41;5010233;28;20879;-59
2023/12/26 06:52:06;;;;;;;36.63;18.43;;;11.90;79.80;;;11.87;48.92;95224.81;5010438;28;20450;-57
2023/12/26 06:54:33;;;;;;;26.83;16.80;;;12.30;78.00;;;12.11;48.56;95226.22;5010327;28;20461;-59
2023/12/26 06:57:05;;;;;;;29.70;16.10;;;12.50;76.80;;;12.36;47.95;95233.56;5009855;28;20958;-59
2023/12/26 06:59:33;;;;;;;39.57;17.93;;;12.80;75.30;;;12.74;47.46;95233.59;5010554;28;21020;-60
2023/12/26 07:02:01;;;;;;;32.97;18.90;;;13.10;74.80;;;13.15;47.18;95238.56;5002418;28;20512;-57
2023/12/26 07:04:29;;;;;;;28.13;18.47;;;13.30;74.00;;;13.47;45.68;95234.69;5010368;28;20849;-57
2023/12/26 07:06:56;;;;;;;39.83;19.00;;;13.60;71.80;;;13.76;45.15;95232.66;5008301;28;20454;-58
2023/12/26 07:09:23;;;;;;;44.10;19.53;;;13.80;70.50;;;14.10;45.46;95244.38;5007290;28;21009;-59
2023/12/26 07:11:51;;;;;;;35.00;19.40;;;14.20;70.80;;;14.47;44.63;95248.66;5009587;28;20461;-60
2023/12/26 07:14:18;;;;;;;36.70;18.87;;;14.60;69.10;;;14.84;43.52;95245.75;5010126;28;20484;-59
2023/12/26 07:16:46;;;;;;;30.07;16.93;;;15.00;68.00;;;15.20;43.68;95242.97;5007951;28;20477;-58
2023/12/26 07:19:15;;;;;;;31.53;19.97;;;15.40;67.00;;;15.61;43.74;95247.56;5006848;28;20465;-58
2023/12/26 07:21:42;;;;;;;35.47;19.30;;;15.90;67.80;;;16.00;42.21;95248.84;5005912;28;20540;-58
2023/12/26 07:24:10;;;;;;;30.27;18.27;;;16.30;64.10;;;16.31;42.83;95251.66;5007971;28;20456;-59
2023/12/26 07:26:37;;;;;;;46.70;19.20;;;16.70;65.40;;;16.57;41.66;95256.00;5004955;28;20447;-56
2023/12/26 07:29:04;;;;;;;29.83;19.17;;;17.00;63.50;;;16.92;40.38;95246.84;5009052;28;20495;-58
2023/12/26 07:31:32;;;;;;;36.43;20.67;;;17.40;61.70;;;17.15;40.69;95244.28;5002848;28;20442;-57
2023/12/26 07:34:02;;;;;;;40.63;21.90;;;17.70;60.10;;;17.42;39.79;95260.78;5008469;28;20540;-56
2023/12/26 07:36:31;;;;;;;42.00;23.53;;;18.00;58.80;;;17.69;39.13;95253.34;5008960;28;20580;-57
2023/12/26 07:38:58;;;;;;;44.53;22.97;;;18.20;58.50;;;17.90;38.84;95263.41;5004837;28;20454;-57
2023/12/26 07:41:26;;;;;;;49.13;24.60;;;18.50;57.80;;;18.07;38.79;95258.81;5007161;28;20477;-56
2023/12/26 07:43:54;;;;;;;49.70;26.23;;;18.60;58.00;;;18.17;38.31;95253.25;5009314;28;20962;-60
2023/12/26 07:46:22;;;;;;;64.63;27.80;;;18.80;57.20;;;18.21;37.58;95252.72;5008153;28;20457;-59
2023/12/26 07:48:50;;;;;;;43.10;24.17;;;18.80;54.80;;;18.20;37.28;95256.41;5007669;28;20489;-60
2023/12/26 07:51:17;;;;;;;50.23;25.87;;;18.70;55.70;;;18.25;37.64;95258.53;5009660;28;20488;-59
2023/12/26 07:53:47;;;;;;;44.33;26.30;;;18.60;55.20;;;18.33;37.31;95254.97;5009037;28;20510;-61
2023/12/26 07:56:14;;;;;;;43.00;26.93;;;18.60;55.40;;;18.42;37.56;95259.25;5006057;28;20492;-59
2023/12/26 07:58:41;;;;;;;45.20;24.50;;;18.60;55.30;;;18.54;37.70;95264.94;5009216;28;20450;-60
2023/12/26 08:01:09;;;;;;;42.33;22.47;;;18.50;55.40;;;18.66;37.13;95252.03;5004315;28;20978;-59
2023/12/26 08:03:36;;;;;;;43.20;23.87;;;18.60;55.50;;;18.76;37.18;95266.75;5006760;28;20467;-57
2023/12/26 08:06:04;;;;;;;46.60;24.47;;;18.50;55.20;;;18.88;36.63;95259.16;5007868;28;21680;-59
2023/12/26 08:08:32;;;;;;;45.37;22.07;;;18.60;54.70;;;18.96;36.81;95261.78;5005759;28;20546;-58
2023/12/26 08:11:00;;;;;;;44.57;23.90;;;18.70;54.80;;;19.05;36.71;95264.34;5008885;28;20473;-57
2023/12/26 08:13:28;;;;;;;38.30;22.03;;;18.70;54.60;;;19.15;35.72;95255.06;5005015;28;20950;-57
2023/12/26 08:15:55;;;;;;;45.03;21.80;;;18.80;54.10;;;19.32;36.16;95260.22;5009535;28;20473;-58
2023/12/26 08:18:23;;;;;;;39.60;22.80;;;18.90;54.00;;;19.47;36.29;95263.72;5009062;28;20544;-60
2023/12/26 08:20:50;;;;;;;45.67;22.70;;;19.10;54.10;;;19.64;35.35;95259.00;5009398;28;20502;-60
2023/12/26 08:23:18;;;;;;;34.87;20.73;;;19.20;53.60;;;19.76;35.69;95262.00;5009310;28;20445;-59
2023/12/26 08:25:45;;;;;;;44.13;21.40;;;19.30;53.10;;;19.82;35.37;95255.13;5008019;28;20470;-59
2023/12/26 08:28:14;;;;;;;35.03;20.60;;;19.40;53.20;;;19.89;34.95;95261.34;5007629;28;20472;-59
2023/12/26 08:30:41;;;;;;;37.30;21.03;;;19.50;52.10;;;19.94;34.33;95260.78;5007116;28;20521;-58
2023/12/26 08:33:09;;;;;;;33.27;20.77;;;19.50;51.90;;;19.94;34.71;95252.78;5007663;28;20958;-58
2023/12/26 08:35:36;;;;;;;33.90;20.37;;;19.50;52.00;;;19.90;34.57;95256.84;5006184;28;20468;-59
2023/12/26 08:38:04;;;;;;;36.77;19.60;;;19.50;51.20;;;19.87;34.40;95248.19;5009466;28;20450;-59
2023/12/26 08:40:31;;;;;;;31.67;19.50;;;19.50;51.40;;;19.90;34.52;95249.66;5008969;28;20477;-59
2023/12/26 08:42:59;;;;;;;32.57;19.30;;;19.50;51.50;;;19.93;34.68;95249.28;5007521;28;20450;-57
2023/12/26 08:45:27;;;;;;;31.60;16.80;;;19.50;51.70;;;19.94;34.61;95256.28;5008896;28;20803;-60
2023/12/26 08:47:56;;;;;;;31.30;18.70;;;19.50;51.40;;;19.91;34.69;95258.50;5008090;28;20453;-58
2023/12/26 08:50:23;;;;;;;28.83;18.70;;;19.50;51.50;;;19.95;34.31;95252.59;5012791;28;20501;-59
2023/12/26 08:52:51;;;;;;;26.57;16.83;;;19.50;51.30;;;20.00;33.81;95252.88;5012602;28;21183;-59
2023/12/26 08:55:19;;;;;;;31.57;18.90;;;19.50;50.30;;;19.95;34.01;95244.56;5008649;28;20466;-57
2023/12/26 08:57:46;;;;;;;26.73;17.10;;;19.50;50.90;;;19.94;34.50;95248.28;5011366;28;20449;-58
2023/12/26 09:00:15;;;;;;;32.70;17.00;;;19.50;51.20;;;19.96;34.11;95246.25;5012426;28;20472;-58
2023/12/26 09:02:44;;;;;;;28.07;15.20;;;19.50;50.70;;;19.92;33.82;95242.28;5012219;28;21155;-61
2023/12/26 09:05:12;;;;;;;31.10;18.30;;;19.40;50.50;;;19.88;34.33;95238.34;5012722;28;20477;-59
2023/12/26 09:07:40;;;;;;;48.63;18.53;;;19.40;50.80;;;19.89;33.53;95237.31;5012888;28;20504;-59
2023/12/26 09:10:09;;;;;;;34.10;16.37;;;19.40;50.40;;;19.92;33.62;95233.47;5012617;28;20501;-58
2023/12/26 09:12:36;;;;;;;30.60;17.70;;;19.40;50.50;;;19.96;33.89;95227.56;5012755;28;20953;-59
2023/12/26 09:15:05;;;;;;;28.27;18.27;;;19.40;50.80;;;20.06;33.99;95230.75;5011622;28;20535;-59
2023/12/26 09:17:32;;;;;;;42.30;19.30;;;19.50;50.80;;;20.19;34.10;95226.56;5009067;28;20454;-59
2023/12/26 09:20:01;;;;;;;37.13;18.90;;;19.60;50.90;;;20.34;33.74;95227.31;5008675;28;20477;-58
2023/12/26 09:22:28;;;;;;;44.53;19.63;;;19.70;50.60;;;20.43;33.90;95219.97;5011146;28;20461;-56
2023/12/26 09:24:56;;;;;;;31.53;19.07;;;19.80;50.30;;;20.55;32.95;95218.44;5011273;28;20480;-60
2023/12/26 09:27:23;;;;;;;38.40;22.57;;;19.90;49.60;;;20.70;32.99;95210.38;5006084;28;20454;-60
2023/12/26 09:29:50;;;;;;;46.23;21.97;;;20.10;49.70;;;20.88;32.05;95214.38;5008165;28;20493;-60
2023/12/26 09:32:18;;;;;;;48.13;22.57;;;20.20;48.60;;;21.08;32.65;95206.50;5006815;28;20488;-58
2023/12/26 09:34:45;;;;;;;44.67;25.57;;;20.30;49.40;;;21.30;32.78;95199.19;5010827;28;20469;-59
2023/12/26 09:37:14;;;;;;;48.33;25.83;;;20.60;49.30;;;21.39;32.50;95192.66;5011487;28;20446;-59
2023/12/26 09:39:41;;;;;;;44.90;28.13;;;20.70;48.80;;;21.44;32.41;95192.91;5010867;28;20470;-59
2023/12/26 09:42:10;;;;;;;50.03;27.27;;;20.80;48.90;;;21.54;31.75;95191.72;5005374;28;20449;-58
2023/12/26 09:44:39;;;;;;;47.53;26.70;;;20.90;48.30;;;21.72;30.72;95189.31;5010816;28;20473;-60
2023/12/26 09:47:07;;;;;;;45.87;26.80;;;21.00;47.70;;;21.96;31.55;95179.06;5011161;28;20449;-58
2023/12/26 09:49:35;;;;;;;44.63;26.47;;;21.20;48.00;;;22.10;31.97;95177.25;5011720;28;20557;-59
2023/12/26 09:52:03;;;;;;;37.80;24.83;;;21.30;48.10;;;22.36;31.53;95182.66;5010368;28;20465;-58
2023/12/26 09:54:32;;;;;;;44.70;24.97;;;21.60;48.30;;;22.65;31.39;95174.38;5007265;28;20475;-57
2023/12/26 09:57:00;;;;;;;52.30;26.07;;;21.80;47.30;;;22.91;30.08;95174.38;5011492;28;20925;-58
2023/12/26 09:59:27;;;;;;;47.00;23.97;;;22.00;46.80;;;23.08;30.29;95172.09;5010965;28;20489;-60
2023/12/26 10:01:55;;;;;;;40.87;21.70;;;22.30;46.40;;;23.20;29.98;95168.75;5010832;28;21166;-58
2023/12/26 10:04:22;;;;;;;41.10;21.70;;;22.40;45.50;;;23.33;30.22;95165.19;5009518;28;20450;-58
2023/12/26 10:06:50;;;;;;;31.13;18.27;;;22.50;45.60;;;23.46;29.65;95159.78;5010848;28;20854;-59
2023/12/26 10:09:19;;;;;;;30.70;19.30;;;22.70;45.10;;;23.54;29.71;95158.72;5010173;28;20446;-58
2023/12/26 10:11:47;;;;;;;31.30;19.90;;;22.80;45.30;;;23.67;29.54;95161.34;5010313;28;20449;-61
2023/12/26 10:14:27;;;;;;;32.77;19.77;;;22.90;45.00;;;23.93;28.59;95157.69;5005999;28;20442;-59
2023/12/26 10:16:56;;;;;;;38.97;20.73;;;23.10;44.00;;;24.25;29.21;95156.88;5006788;28;20449;-60